Flight Track Log - Related Links

Times and Time Zones

All times are in EDT time to prevent confusion due to time zone crossing. See the CSN3678 flight status page for this flight to view local times or setup timezone preferences in your user account.

Time Position Orientation Groundspeed Altitude Reporting Facility
EDT Latitude Longitude Course Direction KTS MPH feet Rate Location/Type
Sun 04:42:02 AM 42.5163 124.1011 210° Southwest  Level Estimated
Sun 04:43:02 AM 42.4235 124.0299 209° Southwest  Level Estimated
Sun 04:44:02 AM 42.3306 123.9589 209° Southwest  Level Estimated
Sun 04:45:02 AM 42.2377 123.8882 209° Southwest  Level Estimated
Sun 04:46:02 AM 42.1447 123.8176 209° Southwest  Level Estimated
Sun 04:47:02 AM 42.0517 123.7473 209° Southwest  Level Estimated
Sun 04:48:02 AM 41.9586 123.6771 209° Southwest  Level Estimated
Sun 04:49:02 AM 41.8655 123.6072 209° Southwest  Level Estimated
Sun 04:50:02 AM 41.7724 123.5375 209° Southwest  Level Estimated
Sun 04:51:02 AM 41.6792 123.4679 209° Southwest  Level Estimated
Sun 04:52:02 AM 41.5860 123.3986 209° Southwest  Level Estimated
Sun 04:53:02 AM 41.4927 123.3295 209° Southwest  Level Estimated
Sun 04:54:02 AM 41.3994 123.2605 209° Southwest  Level Estimated
Sun 04:55:02 AM 41.3061 123.1918 209° Southwest  Level Estimated
Sun 04:56:02 AM 41.2127 123.1233 209° Southwest  Level Estimated
Sun 04:57:02 AM 41.1192 123.0549 209° Southwest  Level Estimated
Sun 04:58:02 AM 41.0258 122.9868 209° Southwest  Level Estimated
Sun 04:59:02 AM 40.9323 122.9188 209° Southwest  Level Estimated
Sun 05:00:02 AM 40.8387 122.8511 209° Southwest  Level Estimated
Sun 05:01:02 AM 40.7451 122.7835 209° Southwest  Level Estimated
Sun 05:02:02 AM 40.6515 122.7161 209° Southwest  Level Estimated
Sun 05:03:02 AM 40.5578 122.6489 209° Southwest  Level Estimated
Sun 05:04:02 AM 40.4641 122.5819 209° Southwest  Level Estimated
Sun 05:05:02 AM 40.3704 122.5151 208° Southwest  Level Estimated
Sun 05:06:02 AM 40.2766 122.4485 208° Southwest  Level Estimated
Sun 05:07:02 AM 40.1828 122.3820 208° Southwest  Level Estimated
Sun 05:08:02 AM 40.0889 122.3158 208° Southwest  Level Estimated
Sun 05:09:02 AM 39.9950 122.2497 208° Southwest  Level Estimated
Sun 05:10:02 AM 39.9011 122.1838 208° Southwest  Level Estimated
Sun 05:11:02 AM 39.8071 122.1181 208° Southwest  Level Estimated
Sun 05:12:02 AM 39.7131 122.0525 208° Southwest  Level Estimated
Sun 05:13:02 AM 39.6190 121.9872 208° Southwest  Level Estimated
Sun 05:14:02 AM 39.5249 121.9220 208° Southwest  Level Estimated
Sun 05:15:02 AM 39.4308 121.8570 208° Southwest  Level Estimated
Sun 05:16:02 AM 39.3367 121.7921 208° Southwest  Level Estimated
Sun 05:17:02 AM 39.2425 121.7275 208° Southwest  Level Estimated
Sun 05:18:02 AM 39.1483 121.6630 208° Southwest  Level Estimated
Sun 05:19:02 AM 39.0540 121.5987 208° Southwest  Level Estimated
Sun 05:20:02 AM 38.9597 121.5345 28° Northeast  Level Estimated
Sun 05:21:02 AM 39.0540 121.5987 208° Southwest  Level Estimated
Sun 05:22:02 AM 38.9597 121.5345 28° Northeast  Level Estimated
Sun 05:23:02 AM 39.0540 121.5987 208° Southwest  Level Estimated
Sun 05:24:02 AM 38.9597 121.5345 28° Northeast  Level Estimated
Sun 05:25:02 AM 39.0540 121.5987 208° Southwest  Level Estimated
Sun 05:26:02 AM 38.9597 121.5345 28° Northeast  Level Estimated
Sun 05:27:02 AM 39.0540 121.5987 208° Southwest  Level Estimated
Sun 05:28:02 AM 38.9597 121.5345 28° Northeast  Level Estimated
Sun 05:29:02 AM 39.0540 121.5987 208° Southwest  Level Estimated
Sun 05:30:02 AM 38.9597 121.5345 28° Northeast  Level Estimated
Sun 05:31:02 AM 39.0540 121.5987 208° Southwest  Level Estimated
Sun 05:32:02 AM 38.9597 121.5345 28° Northeast  Level Estimated
Sun 05:33:02 AM 39.0540 121.5987 208° Southwest  Level Estimated
Sun 05:34:02 AM 38.9597 121.5345 28° Northeast  Level Estimated
Sun 05:35:02 AM 39.0540 121.5987 28° Northeast  Level Estimated

Login

Don't have an account? Register now (free) for customized features, flight alerts, and more!